Hollywood, Arkansas
Current Conditions -  °F | °C
As of 2:40 AM on Sunday 23 Nov 2014 (Local Time) from KADF Reporting Station
Light Rain Light Rain  
Wind Chill: 57°   Ceiling: 4500
Heat Index: 57°   Visibility: 9mi
Dew Point: 57°   Wind: 10mph
Humidity: 100%   Direction: 140°SE
Pressure: 29.71"   Gusts: NA
Location:  34.0941°N, 93.0475°W
Report Text: KADF 230840Z AUTO 14009KT 9SM -RA SCT009 BKN045 14/14 A2971 RMK AO2 RAE0759B29 P0000
Loading
Personal Weather Stations






























Interactive Weather Map New forecast layout! Learn more

10-Day Weather Forecast

Advertisements
Track Severe Weather on mobile